sensor_id;sensor_type;location;lat;lon;timestamp;P1;durP1;ratioP1;P2;durP2;ratioP2
4365;SDS011;2196;47.422;9.656;2023-06-10T00:01:54;5.03;;;4.83;;
4365;SDS011;2196;47.422;9.656;2023-06-10T00:04:24;6.20;;;5.80;;
4365;SDS011;2196;47.422;9.656;2023-06-10T00:06:52;5.50;;;5.23;;
4365;SDS011;2196;47.422;9.656;2023-06-10T00:09:19;5.60;;;5.30;;
4365;SDS011;2196;47.422;9.656;2023-06-10T00:11:46;6.87;;;6.30;;
4365;SDS011;2196;47.422;9.656;2023-06-10T00:14:13;6.30;;;6.00;;
4365;SDS011;2196;47.422;9.656;2023-06-10T00:16:42;6.10;;;5.80;;
4365;SDS011;2196;47.422;9.656;2023-06-10T00:19:10;6.50;;;6.10;;
4365;SDS011;2196;47.422;9.656;2023-06-10T00:21:38;7.60;;;7.03;;
4365;SDS011;2196;47.422;9.656;2023-06-10T00:24:06;8.37;;;7.67;;
4365;SDS011;2196;47.422;9.656;2023-06-10T00:26:37;8.90;;;8.30;;
4365;SDS011;2196;47.422;9.656;2023-06-10T00:29:03;8.00;;;7.50;;
4365;SDS011;2196;47.422;9.656;2023-06-10T00:31:30;7.73;;;7.23;;
4365;SDS011;2196;47.422;9.656;2023-06-10T00:33:59;7.80;;;7.30;;
4365;SDS011;2196;47.422;9.656;2023-06-10T00:36:26;7.47;;;7.07;;
4365;SDS011;2196;47.422;9.656;2023-06-10T00:38:53;7.80;;;7.30;;
4365;SDS011;2196;47.422;9.656;2023-06-10T00:41:20;6.80;;;6.40;;
4365;SDS011;2196;47.422;9.656;2023-06-10T00:43:47;7.67;;;7.17;;
4365;SDS011;2196;47.422;9.656;2023-06-10T00:46:14;6.43;;;6.03;;
4365;SDS011;2196;47.422;9.656;2023-06-10T00:48:42;8.77;;;8.17;;
4365;SDS011;2196;47.422;9.656;2023-06-10T00:51:11;7.50;;;6.93;;
4365;SDS011;2196;47.422;9.656;2023-06-10T00:53:39;8.00;;;7.50;;
4365;SDS011;2196;47.422;9.656;2023-06-10T00:56:06;7.13;;;6.63;;
4365;SDS011;2196;47.422;9.656;2023-06-10T00:58:34;7.23;;;6.67;;
4365;SDS011;2196;47.422;9.656;2023-06-10T01:01:01;8.03;;;7.40;;
4365;SDS011;2196;47.422;9.656;2023-06-10T01:03:29;7.30;;;6.67;;
4365;SDS011;2196;47.422;9.656;2023-06-10T01:05:58;7.27;;;6.77;;
4365;SDS011;2196;47.422;9.656;2023-06-10T01:08:33;6.77;;;6.37;;
4365;SDS011;2196;47.422;9.656;2023-06-10T01:11:07;6.80;;;6.40;;
4365;SDS011;2196;47.422;9.656;2023-06-10T01:13:40;7.53;;;7.03;;
4365;SDS011;2196;47.422;9.656;2023-06-10T01:16:08;7.27;;;6.73;;
4365;SDS011;2196;47.422;9.656;2023-06-10T01:18:36;7.00;;;6.50;;
4365;SDS011;2196;47.422;9.656;2023-06-10T01:21:03;7.03;;;6.63;;
4365;SDS011;2196;47.422;9.656;2023-06-10T01:23:34;8.07;;;7.57;;
4365;SDS011;2196;47.422;9.656;2023-06-10T01:26:02;7.33;;;6.73;;
4365;SDS011;2196;47.422;9.656;2023-06-10T01:28:33;7.20;;;6.60;;
4365;SDS011;2196;47.422;9.656;2023-06-10T01:31:09;7.40;;;6.90;;
4365;SDS011;2196;47.422;9.656;2023-06-10T01:33:41;7.70;;;7.30;;
4365;SDS011;2196;47.422;9.656;2023-06-10T01:36:11;8.10;;;7.60;;
4365;SDS011;2196;47.422;9.656;2023-06-10T01:38:43;6.37;;;6.07;;
4365;SDS011;2196;47.422;9.656;2023-06-10T01:41:10;7.97;;;7.30;;
4365;SDS011;2196;47.422;9.656;2023-06-10T01:43:39;6.83;;;6.37;;
4365;SDS011;2196;47.422;9.656;2023-06-10T01:46:08;6.77;;;6.27;;
4365;SDS011;2196;47.422;9.656;2023-06-10T01:48:36;7.83;;;6.97;;
4365;SDS011;2196;47.422;9.656;2023-06-10T01:51:03;7.07;;;6.40;;
4365;SDS011;2196;47.422;9.656;2023-06-10T01:53:30;7.07;;;6.57;;
4365;SDS011;2196;47.422;9.656;2023-06-10T01:55:59;6.37;;;5.97;;
4365;SDS011;2196;47.422;9.656;2023-06-10T01:58:26;7.30;;;6.70;;
4365;SDS011;2196;47.422;9.656;2023-06-10T02:00:53;7.03;;;6.40;;
4365;SDS011;2196;47.422;9.656;2023-06-10T02:03:20;6.20;;;5.90;;
4365;SDS011;2196;47.422;9.656;2023-06-10T02:05:47;6.53;;;6.23;;
4365;SDS011;2196;47.422;9.656;2023-06-10T02:08:13;6.90;;;6.40;;
4365;SDS011;2196;47.422;9.656;2023-06-10T02:10:40;7.87;;;7.27;;
4365;SDS011;2196;47.422;9.656;2023-06-10T02:13:09;7.37;;;6.87;;
4365;SDS011;2196;47.422;9.656;2023-06-10T02:15:36;7.03;;;6.53;;
4365;SDS011;2196;47.422;9.656;2023-06-10T02:18:03;6.67;;;6.27;;
4365;SDS011;2196;47.422;9.656;2023-06-10T02:20:30;7.97;;;7.27;;
4365;SDS011;2196;47.422;9.656;2023-06-10T02:22:58;6.53;;;6.17;;
4365;SDS011;2196;47.422;9.656;2023-06-10T02:25:25;6.53;;;6.23;;
4365;SDS011;2196;47.422;9.656;2023-06-10T02:27:52;7.23;;;6.83;;
4365;SDS011;2196;47.422;9.656;2023-06-10T02:30:20;7.53;;;6.93;;
4365;SDS011;2196;47.422;9.656;2023-06-10T02:32:47;7.53;;;6.97;;
4365;SDS011;2196;47.422;9.656;2023-06-10T02:35:15;6.87;;;6.53;;
4365;SDS011;2196;47.422;9.656;2023-06-10T02:37:43;6.37;;;6.07;;
4365;SDS011;2196;47.422;9.656;2023-06-10T02:40:11;6.87;;;6.47;;
4365;SDS011;2196;47.422;9.656;2023-06-10T02:42:38;7.30;;;6.63;;
4365;SDS011;2196;47.422;9.656;2023-06-10T02:45:05;6.83;;;6.43;;
4365;SDS011;2196;47.422;9.656;2023-06-10T02:47:34;7.27;;;6.70;;
4365;SDS011;2196;47.422;9.656;2023-06-10T02:50:04;7.00;;;6.60;;
4365;SDS011;2196;47.422;9.656;2023-06-10T02:52:31;6.80;;;6.27;;
4365;SDS011;2196;47.422;9.656;2023-06-10T02:54:58;8.30;;;7.80;;
4365;SDS011;2196;47.422;9.656;2023-06-10T02:57:25;7.63;;;7.03;;
4365;SDS011;2196;47.422;9.656;2023-06-10T02:59:52;6.40;;;6.07;;
4365;SDS011;2196;47.422;9.656;2023-06-10T03:02:19;7.57;;;7.00;;
4365;SDS011;2196;47.422;9.656;2023-06-10T03:04:48;6.90;;;6.50;;
4365;SDS011;2196;47.422;9.656;2023-06-10T03:07:15;6.27;;;5.97;;
4365;SDS011;2196;47.422;9.656;2023-06-10T03:09:43;7.27;;;6.77;;
4365;SDS011;2196;47.422;9.656;2023-06-10T03:12:10;7.53;;;7.03;;
4365;SDS011;2196;47.422;9.656;2023-06-10T03:14:37;6.40;;;6.10;;
4365;SDS011;2196;47.422;9.656;2023-06-10T03:17:04;7.13;;;6.73;;
4365;SDS011;2196;47.422;9.656;2023-06-10T03:19:33;7.10;;;6.70;;
4365;SDS011;2196;47.422;9.656;2023-06-10T03:22:08;7.07;;;6.57;;
4365;SDS011;2196;47.422;9.656;2023-06-10T03:24:36;7.13;;;6.63;;
4365;SDS011;2196;47.422;9.656;2023-06-10T03:27:05;6.40;;;6.00;;
4365;SDS011;2196;47.422;9.656;2023-06-10T03:29:32;6.57;;;6.17;;
4365;SDS011;2196;47.422;9.656;2023-06-10T03:31:59;6.67;;;6.37;;
4365;SDS011;2196;47.422;9.656;2023-06-10T03:34:26;7.03;;;6.53;;
4365;SDS011;2196;47.422;9.656;2023-06-10T03:36:54;6.87;;;6.53;;
4365;SDS011;2196;47.422;9.656;2023-06-10T03:39:23;6.90;;;6.50;;
4365;SDS011;2196;47.422;9.656;2023-06-10T03:41:50;7.97;;;7.43;;
4365;SDS011;2196;47.422;9.656;2023-06-10T03:44:17;7.10;;;6.60;;
4365;SDS011;2196;47.422;9.656;2023-06-10T03:46:44;10.77;;;6.67;;
4365;SDS011;2196;47.422;9.656;2023-06-10T03:49:12;6.70;;;6.30;;
4365;SDS011;2196;47.422;9.656;2023-06-10T03:51:40;7.00;;;6.53;;
4365;SDS011;2196;47.422;9.656;2023-06-10T03:54:07;6.93;;;6.33;;
4365;SDS011;2196;47.422;9.656;2023-06-10T03:56:35;6.73;;;6.00;;
4365;SDS011;2196;47.422;9.656;2023-06-10T03:59:02;6.23;;;5.93;;
4365;SDS011;2196;47.422;9.656;2023-06-10T04:01:30;6.93;;;6.43;;
4365;SDS011;2196;47.422;9.656;2023-06-10T04:03:58;6.97;;;6.40;;
4365;SDS011;2196;47.422;9.656;2023-06-10T04:06:26;7.17;;;6.67;;
4365;SDS011;2196;47.422;9.656;2023-06-10T04:08:54;6.20;;;5.80;;
4365;SDS011;2196;47.422;9.656;2023-06-10T04:11:21;6.53;;;6.17;;
4365;SDS011;2196;47.422;9.656;2023-06-10T04:13:50;6.57;;;6.03;;
4365;SDS011;2196;47.422;9.656;2023-06-10T04:16:17;6.87;;;6.37;;
4365;SDS011;2196;47.422;9.656;2023-06-10T04:18:44;6.90;;;6.43;;
4365;SDS011;2196;47.422;9.656;2023-06-10T04:21:11;6.83;;;6.43;;
4365;SDS011;2196;47.422;9.656;2023-06-10T04:23:38;6.93;;;6.37;;
4365;SDS011;2196;47.422;9.656;2023-06-10T04:26:05;7.87;;;7.17;;
4365;SDS011;2196;47.422;9.656;2023-06-10T04:28:33;8.20;;;7.63;;
4365;SDS011;2196;47.422;9.656;2023-06-10T04:31:02;7.43;;;6.97;;
4365;SDS011;2196;47.422;9.656;2023-06-10T04:33:30;9.90;;;7.70;;
4365;SDS011;2196;47.422;9.656;2023-06-10T04:35:57;8.00;;;7.40;;
4365;SDS011;2196;47.422;9.656;2023-06-10T04:38:24;8.73;;;8.13;;
4365;SDS011;2196;47.422;9.656;2023-06-10T04:40:52;8.67;;;7.93;;
4365;SDS011;2196;47.422;9.656;2023-06-10T04:43:19;9.63;;;8.77;;
4365;SDS011;2196;47.422;9.656;2023-06-10T04:45:47;10.40;;;9.60;;
4365;SDS011;2196;47.422;9.656;2023-06-10T04:48:15;9.10;;;8.30;;
4365;SDS011;2196;47.422;9.656;2023-06-10T04:50:43;9.80;;;9.00;;
4365;SDS011;2196;47.422;9.656;2023-06-10T04:53:10;9.00;;;8.50;;
4365;SDS011;2196;47.422;9.656;2023-06-10T04:55:37;10.73;;;9.83;;
4365;SDS011;2196;47.422;9.656;2023-06-10T04:58:04;10.13;;;9.53;;
4365;SDS011;2196;47.422;9.656;2023-06-10T05:00:31;10.97;;;10.03;;
4365;SDS011;2196;47.422;9.656;2023-06-10T05:02:58;9.70;;;9.03;;
4365;SDS011;2196;47.422;9.656;2023-06-10T05:05:27;10.40;;;9.47;;
4365;SDS011;2196;47.422;9.656;2023-06-10T05:07:55;9.50;;;8.90;;
4365;SDS011;2196;47.422;9.656;2023-06-10T05:10:22;10.10;;;9.30;;
4365;SDS011;2196;47.422;9.656;2023-06-10T05:12:49;10.90;;;10.10;;
4365;SDS011;2196;47.422;9.656;2023-06-10T05:15:17;9.60;;;9.00;;
4365;SDS011;2196;47.422;9.656;2023-06-10T05:17:44;9.73;;;9.13;;
4365;SDS011;2196;47.422;9.656;2023-06-10T05:20:11;11.47;;;10.77;;
4365;SDS011;2196;47.422;9.656;2023-06-10T05:22:40;11.73;;;10.73;;
4365;SDS011;2196;47.422;9.656;2023-06-10T05:25:07;11.23;;;10.43;;
4365;SDS011;2196;47.422;9.656;2023-06-10T05:27:34;10.87;;;10.10;;
4365;SDS011;2196;47.422;9.656;2023-06-10T05:30:01;10.37;;;9.67;;
4365;SDS011;2196;47.422;9.656;2023-06-10T05:32:30;10.07;;;9.37;;
4365;SDS011;2196;47.422;9.656;2023-06-10T05:34:57;10.77;;;9.93;;
4365;SDS011;2196;47.422;9.656;2023-06-10T05:37:25;10.33;;;9.63;;
4365;SDS011;2196;47.422;9.656;2023-06-10T05:39:53;11.20;;;10.37;;
4365;SDS011;2196;47.422;9.656;2023-06-10T05:42:20;11.27;;;10.50;;
4365;SDS011;2196;47.422;9.656;2023-06-10T05:44:47;11.73;;;10.83;;
4365;SDS011;2196;47.422;9.656;2023-06-10T05:47:15;10.03;;;9.43;;
4365;SDS011;2196;47.422;9.656;2023-06-10T05:49:42;10.40;;;9.60;;
4365;SDS011;2196;47.422;9.656;2023-06-10T05:52:10;11.50;;;10.33;;
4365;SDS011;2196;47.422;9.656;2023-06-10T05:54:41;11.20;;;10.40;;
4365;SDS011;2196;47.422;9.656;2023-06-10T05:57:09;10.93;;;10.13;;
4365;SDS011;2196;47.422;9.656;2023-06-10T05:59:36;11.80;;;10.80;;
4365;SDS011;2196;47.422;9.656;2023-06-10T06:02:03;11.90;;;11.17;;
4365;SDS011;2196;47.422;9.656;2023-06-10T06:04:31;10.40;;;9.65;;
4365;SDS011;2196;47.422;9.656;2023-06-10T06:06:58;9.60;;;9.10;;
4365;SDS011;2196;47.422;9.656;2023-06-10T06:09:25;9.63;;;8.93;;
4365;SDS011;2196;47.422;9.656;2023-06-10T06:11:52;10.73;;;10.00;;
4365;SDS011;2196;47.422;9.656;2023-06-10T06:14:20;10.07;;;9.47;;
4365;SDS011;2196;47.422;9.656;2023-06-10T06:16:47;11.50;;;10.70;;
4365;SDS011;2196;47.422;9.656;2023-06-10T06:19:14;11.97;;;11.07;;
4365;SDS011;2196;47.422;9.656;2023-06-10T06:21:41;11.67;;;10.83;;
4365;SDS011;2196;47.422;9.656;2023-06-10T06:24:08;12.13;;;11.33;;
4365;SDS011;2196;47.422;9.656;2023-06-10T06:26:35;11.73;;;10.93;;
4365;SDS011;2196;47.422;9.656;2023-06-10T06:29:02;11.13;;;10.43;;
4365;SDS011;2196;47.422;9.656;2023-06-10T06:31:31;11.97;;;10.97;;
4365;SDS011;2196;47.422;9.656;2023-06-10T06:33:58;11.83;;;10.73;;
4365;SDS011;2196;47.422;9.656;2023-06-10T06:36:24;11.77;;;10.83;;
4365;SDS011;2196;47.422;9.656;2023-06-10T06:38:51;10.87;;;10.10;;
4365;SDS011;2196;47.422;9.656;2023-06-10T06:41:18;11.15;;;10.55;;
4365;SDS011;2196;47.422;9.656;2023-06-10T06:43:47;11.25;;;10.32;;
4365;SDS011;2196;47.422;9.656;2023-06-10T06:46:14;11.07;;;10.35;;
4365;SDS011;2196;47.422;9.656;2023-06-10T06:48:42;10.15;;;9.45;;
4365;SDS011;2196;47.422;9.656;2023-06-10T06:51:09;11.25;;;10.30;;
4365;SDS011;2196;47.422;9.656;2023-06-10T06:53:36;11.13;;;10.43;;
4365;SDS011;2196;47.422;9.656;2023-06-10T06:56:09;11.48;;;10.57;;
4365;SDS011;2196;47.422;9.656;2023-06-10T06:58:36;11.23;;;10.30;;
4365;SDS011;2196;47.422;9.656;2023-06-10T07:01:03;11.27;;;10.45;;
4365;SDS011;2196;47.422;9.656;2023-06-10T07:03:29;10.90;;;10.25;;
4365;SDS011;2196;47.422;9.656;2023-06-10T07:05:58;11.25;;;10.52;;
4365;SDS011;2196;47.422;9.656;2023-06-10T07:08:25;12.00;;;11.20;;
4365;SDS011;2196;47.422;9.656;2023-06-10T07:10:52;11.55;;;10.40;;
4365;SDS011;2196;47.422;9.656;2023-06-10T07:13:19;10.32;;;9.77;;
4365;SDS011;2196;47.422;9.656;2023-06-10T07:15:46;11.50;;;10.70;;
4365;SDS011;2196;47.422;9.656;2023-06-10T07:18:14;12.82;;;11.90;;
4365;SDS011;2196;47.422;9.656;2023-06-10T07:20:41;13.38;;;12.38;;
4365;SDS011;2196;47.422;9.656;2023-06-10T07:23:09;13.17;;;12.27;;
4365;SDS011;2196;47.422;9.656;2023-06-10T07:25:36;12.77;;;11.80;;
4365;SDS011;2196;47.422;9.656;2023-06-10T07:28:03;13.23;;;12.23;;
4365;SDS011;2196;47.422;9.656;2023-06-10T07:30:30;11.27;;;10.60;;
4365;SDS011;2196;47.422;9.656;2023-06-10T07:32:57;13.53;;;12.47;;
4365;SDS011;2196;47.422;9.656;2023-06-10T07:35:24;11.97;;;11.27;;
4365;SDS011;2196;47.422;9.656;2023-06-10T07:37:51;12.80;;;11.77;;
4365;SDS011;2196;47.422;9.656;2023-06-10T07:40:19;14.43;;;13.33;;
4365;SDS011;2196;47.422;9.656;2023-06-10T07:42:46;13.00;;;12.03;;
4365;SDS011;2196;47.422;9.656;2023-06-10T07:45:13;13.30;;;12.27;;
4365;SDS011;2196;47.422;9.656;2023-06-10T07:47:40;11.40;;;10.50;;
4365;SDS011;2196;47.422;9.656;2023-06-10T07:50:07;11.63;;;10.93;;
4365;SDS011;2196;47.422;9.656;2023-06-10T07:52:35;13.23;;;12.07;;
4365;SDS011;2196;47.422;9.656;2023-06-10T07:55:02;12.43;;;11.55;;
4365;SDS011;2196;47.422;9.656;2023-06-10T07:57:32;11.68;;;10.65;;
4365;SDS011;2196;47.422;9.656;2023-06-10T08:00:01;12.35;;;11.60;;
4365;SDS011;2196;47.422;9.656;2023-06-10T08:02:29;13.55;;;12.65;;
4365;SDS011;2196;47.422;9.656;2023-06-10T08:04:56;11.82;;;10.93;;
4365;SDS011;2196;47.422;9.656;2023-06-10T08:07:23;13.35;;;12.50;;
4365;SDS011;2196;47.422;9.656;2023-06-10T08:09:50;12.57;;;11.77;;
4365;SDS011;2196;47.422;9.656;2023-06-10T08:12:17;13.45;;;12.35;;
4365;SDS011;2196;47.422;9.656;2023-06-10T08:14:46;12.60;;;11.60;;
4365;SDS011;2196;47.422;9.656;2023-06-10T08:17:13;13.68;;;12.45;;
4365;SDS011;2196;47.422;9.656;2023-06-10T08:19:40;12.70;;;11.85;;
4365;SDS011;2196;47.422;9.656;2023-06-10T08:22:07;13.18;;;12.38;;
4365;SDS011;2196;47.422;9.656;2023-06-10T08:24:35;12.85;;;12.05;;
4365;SDS011;2196;47.422;9.656;2023-06-10T08:27:02;13.63;;;12.82;;
4365;SDS011;2196;47.422;9.656;2023-06-10T08:29:31;13.93;;;12.93;;
4365;SDS011;2196;47.422;9.656;2023-06-10T08:31:59;14.23;;;13.13;;
4365;SDS011;2196;47.422;9.656;2023-06-10T08:34:26;14.07;;;13.07;;
4365;SDS011;2196;47.422;9.656;2023-06-10T08:36:53;14.43;;;13.37;;
4365;SDS011;2196;47.422;9.656;2023-06-10T08:39:20;13.20;;;12.07;;
4365;SDS011;2196;47.422;9.656;2023-06-10T08:41:49;15.30;;;13.85;;
4365;SDS011;2196;47.422;9.656;2023-06-10T08:44:31;12.90;;;12.10;;
4365;SDS011;2196;47.422;9.656;2023-06-10T08:47:05;13.40;;;12.50;;
4365;SDS011;2196;47.422;9.656;2023-06-10T08:49:43;14.10;;;13.05;;
4365;SDS011;2196;47.422;9.656;2023-06-10T08:52:15;12.27;;;11.48;;
4365;SDS011;2196;47.422;9.656;2023-06-10T08:54:46;13.27;;;12.40;;
4365;SDS011;2196;47.422;9.656;2023-06-10T08:57:17;12.63;;;11.55;;
4365;SDS011;2196;47.422;9.656;2023-06-10T08:59:48;12.38;;;11.48;;
4365;SDS011;2196;47.422;9.656;2023-06-10T09:02:16;11.93;;;11.07;;
4365;SDS011;2196;47.422;9.656;2023-06-10T09:04:47;12.02;;;11.15;;
4365;SDS011;2196;47.422;9.656;2023-06-10T09:07:15;13.45;;;12.55;;
4365;SDS011;2196;47.422;9.656;2023-06-10T09:09:45;12.32;;;11.52;;
4365;SDS011;2196;47.422;9.656;2023-06-10T09:12:16;14.25;;;12.95;;
4365;SDS011;2196;47.422;9.656;2023-06-10T09:14:43;11.25;;;10.55;;
4365;SDS011;2196;47.422;9.656;2023-06-10T09:17:13;13.20;;;12.18;;
4365;SDS011;2196;47.422;9.656;2023-06-10T09:19:42;13.10;;;12.20;;
4365;SDS011;2196;47.422;9.656;2023-06-10T09:22:11;11.88;;;11.07;;
4365;SDS011;2196;47.422;9.656;2023-06-10T09:24:38;12.77;;;11.80;;
4365;SDS011;2196;47.422;9.656;2023-06-10T09:27:06;11.82;;;11.02;;
4365;SDS011;2196;47.422;9.656;2023-06-10T09:29:44;12.77;;;11.18;;
4365;SDS011;2196;47.422;9.656;2023-06-10T09:32:12;10.88;;;10.10;;
4365;SDS011;2196;47.422;9.656;2023-06-10T09:34:39;12.68;;;11.77;;
4365;SDS011;2196;47.422;9.656;2023-06-10T09:37:07;11.48;;;10.52;;
4365;SDS011;2196;47.422;9.656;2023-06-10T09:39:37;11.50;;;10.73;;
4365;SDS011;2196;47.422;9.656;2023-06-10T09:42:10;10.48;;;9.88;;
4365;SDS011;2196;47.422;9.656;2023-06-10T09:44:48;11.23;;;10.43;;
4365;SDS011;2196;47.422;9.656;2023-06-10T09:47:19;9.85;;;9.23;;
4365;SDS011;2196;47.422;9.656;2023-06-10T09:49:47;9.27;;;8.77;;
4365;SDS011;2196;47.422;9.656;2023-06-10T09:52:18;9.88;;;9.05;;
4365;SDS011;2196;47.422;9.656;2023-06-10T09:54:48;10.02;;;9.43;;
4365;SDS011;2196;47.422;9.656;2023-06-10T09:57:16;8.73;;;8.32;;
4365;SDS011;2196;47.422;9.656;2023-06-10T09:59:44;9.85;;;9.27;;
4365;SDS011;2196;47.422;9.656;2023-06-10T10:02:15;8.90;;;8.48;;
4365;SDS011;2196;47.422;9.656;2023-06-10T10:04:42;8.35;;;7.80;;
4365;SDS011;2196;47.422;9.656;2023-06-10T10:07:10;8.90;;;8.30;;
4365;SDS011;2196;47.422;9.656;2023-06-10T10:09:38;8.80;;;8.20;;
4365;SDS011;2196;47.422;9.656;2023-06-10T10:12:07;8.32;;;7.75;;
4365;SDS011;2196;47.422;9.656;2023-06-10T10:14:36;7.85;;;7.45;;
4365;SDS011;2196;47.422;9.656;2023-06-10T10:17:05;8.10;;;7.60;;
4365;SDS011;2196;47.422;9.656;2023-06-10T10:19:36;8.23;;;7.72;;
4365;SDS011;2196;47.422;9.656;2023-06-10T10:22:15;8.32;;;7.72;;
4365;SDS011;2196;47.422;9.656;2023-06-10T10:24:49;7.95;;;7.40;;
4365;SDS011;2196;47.422;9.656;2023-06-10T10:27:18;8.02;;;7.50;;
4365;SDS011;2196;47.422;9.656;2023-06-10T10:29:47;7.32;;;6.88;;
4365;SDS011;2196;47.422;9.656;2023-06-10T10:32:17;8.55;;;7.88;;
4365;SDS011;2196;47.422;9.656;2023-06-10T10:34:48;8.32;;;7.63;;
4365;SDS011;2196;47.422;9.656;2023-06-10T10:37:19;7.97;;;7.50;;
4365;SDS011;2196;47.422;9.656;2023-06-10T10:39:48;8.18;;;7.65;;
4365;SDS011;2196;47.422;9.656;2023-06-10T10:42:16;9.18;;;8.50;;
4365;SDS011;2196;47.422;9.656;2023-06-10T10:44:46;7.10;;;6.65;;
4365;SDS011;2196;47.422;9.656;2023-06-10T10:47:16;7.85;;;7.32;;
4365;SDS011;2196;47.422;9.656;2023-06-10T10:49:47;7.40;;;6.93;;
4365;SDS011;2196;47.422;9.656;2023-06-10T10:52:17;7.93;;;7.53;;
4365;SDS011;2196;47.422;9.656;2023-06-10T10:54:45;7.93;;;7.47;;
4365;SDS011;2196;47.422;9.656;2023-06-10T10:57:17;7.65;;;7.15;;
4365;SDS011;2196;47.422;9.656;2023-06-10T10:59:52;7.45;;;6.95;;
4365;SDS011;2196;47.422;9.656;2023-06-10T11:02:34;7.63;;;7.22;;
4365;SDS011;2196;47.422;9.656;2023-06-10T11:05:04;8.23;;;7.60;;
4365;SDS011;2196;47.422;9.656;2023-06-10T11:07:32;7.57;;;7.18;;
4365;SDS011;2196;47.422;9.656;2023-06-10T11:10:00;7.47;;;7.15;;
4365;SDS011;2196;47.422;9.656;2023-06-10T11:12:42;7.53;;;7.18;;
4365;SDS011;2196;47.422;9.656;2023-06-10T11:15:17;7.82;;;7.43;;
4365;SDS011;2196;47.422;9.656;2023-06-10T11:26:17;6.65;;;6.43;;
4365;SDS011;2196;47.422;9.656;2023-06-10T11:29:08;6.88;;;6.47;;
4365;SDS011;2196;47.422;9.656;2023-06-10T11:34:21;6.28;;;6.03;;
4365;SDS011;2196;47.422;9.656;2023-06-10T11:36:52;7.13;;;6.82;;
4365;SDS011;2196;47.422;9.656;2023-06-10T11:39:19;7.18;;;6.85;;
4365;SDS011;2196;47.422;9.656;2023-06-10T11:41:48;7.55;;;7.15;;
4365;SDS011;2196;47.422;9.656;2023-06-10T11:44:18;6.95;;;6.55;;
4365;SDS011;2196;47.422;9.656;2023-06-10T11:46:45;6.68;;;6.38;;
4365;SDS011;2196;47.422;9.656;2023-06-10T11:49:14;6.65;;;6.43;;
4365;SDS011;2196;47.422;9.656;2023-06-10T11:51:41;6.72;;;6.38;;
4365;SDS011;2196;47.422;9.656;2023-06-10T11:54:14;6.43;;;6.00;;
4365;SDS011;2196;47.422;9.656;2023-06-10T11:56:43;7.25;;;6.78;;
4365;SDS011;2196;47.422;9.656;2023-06-10T11:59:10;7.82;;;7.20;;
4365;SDS011;2196;47.422;9.656;2023-06-10T12:01:41;7.35;;;6.97;;
4365;SDS011;2196;47.422;9.656;2023-06-10T12:04:10;8.00;;;7.60;;
4365;SDS011;2196;47.422;9.656;2023-06-10T12:06:38;9.60;;;7.72;;
4365;SDS011;2196;47.422;9.656;2023-06-10T12:09:12;8.88;;;8.02;;
4365;SDS011;2196;47.422;9.656;2023-06-10T12:11:40;9.93;;;8.88;;
4365;SDS011;2196;47.422;9.656;2023-06-10T12:14:09;9.02;;;8.43;;
4365;SDS011;2196;47.422;9.656;2023-06-10T12:16:35;8.55;;;7.68;;
4365;SDS011;2196;47.422;9.656;2023-06-10T12:19:04;8.80;;;8.20;;
4365;SDS011;2196;47.422;9.656;2023-06-10T12:21:32;8.82;;;8.23;;
4365;SDS011;2196;47.422;9.656;2023-06-10T12:24:04;9.13;;;8.63;;
4365;SDS011;2196;47.422;9.656;2023-06-10T12:26:33;8.85;;;8.32;;
4365;SDS011;2196;47.422;9.656;2023-06-10T12:29:15;9.95;;;9.30;;
4365;SDS011;2196;47.422;9.656;2023-06-10T12:31:56;10.23;;;9.45;;
4365;SDS011;2196;47.422;9.656;2023-06-10T12:34:33;10.40;;;9.77;;
4365;SDS011;2196;47.422;9.656;2023-06-10T12:37:01;9.70;;;9.07;;
4365;SDS011;2196;47.422;9.656;2023-06-10T12:39:29;9.52;;;8.93;;
4365;SDS011;2196;47.422;9.656;2023-06-10T12:41:57;9.00;;;8.40;;
4365;SDS011;2196;47.422;9.656;2023-06-10T12:44:33;9.13;;;8.63;;
4365;SDS011;2196;47.422;9.656;2023-06-10T12:47:06;8.43;;;7.95;;
4365;SDS011;2196;47.422;9.656;2023-06-10T12:49:36;9.30;;;8.80;;
4365;SDS011;2196;47.422;9.656;2023-06-10T12:52:03;7.57;;;7.07;;
4365;SDS011;2196;47.422;9.656;2023-06-10T12:54:31;8.63;;;7.97;;
4365;SDS011;2196;47.422;9.656;2023-06-10T12:56:58;8.98;;;8.48;;
4365;SDS011;2196;47.422;9.656;2023-06-10T12:59:25;8.90;;;8.35;;
4365;SDS011;2196;47.422;9.656;2023-06-10T13:01:53;8.88;;;8.38;;
4365;SDS011;2196;47.422;9.656;2023-06-10T13:04:20;8.88;;;8.38;;
4365;SDS011;2196;47.422;9.656;2023-06-10T13:06:49;8.57;;;7.97;;
4365;SDS011;2196;47.422;9.656;2023-06-10T13:09:16;7.97;;;7.57;;
4365;SDS011;2196;47.422;9.656;2023-06-10T13:11:43;7.68;;;7.18;;
4365;SDS011;2196;47.422;9.656;2023-06-10T13:14:10;8.07;;;7.43;;
4365;SDS011;2196;47.422;9.656;2023-06-10T13:16:38;8.32;;;7.90;;
4365;SDS011;2196;47.422;9.656;2023-06-10T13:19:05;8.57;;;7.97;;
4365;SDS011;2196;47.422;9.656;2023-06-10T13:21:32;8.65;;;8.15;;
4365;SDS011;2196;47.422;9.656;2023-06-10T13:24:01;8.93;;;8.13;;
4365;SDS011;2196;47.422;9.656;2023-06-10T13:26:28;7.63;;;7.22;;
4365;SDS011;2196;47.422;9.656;2023-06-10T13:28:55;9.82;;;8.90;;
4365;SDS011;2196;47.422;9.656;2023-06-10T13:31:22;8.30;;;7.80;;
4365;SDS011;2196;47.422;9.656;2023-06-10T13:33:49;8.25;;;7.85;;
4365;SDS011;2196;47.422;9.656;2023-06-10T13:36:16;7.70;;;7.30;;
4365;SDS011;2196;47.422;9.656;2023-06-10T13:38:43;7.93;;;7.53;;
4365;SDS011;2196;47.422;9.656;2023-06-10T13:41:13;7.18;;;6.88;;
4365;SDS011;2196;47.422;9.656;2023-06-10T13:43:41;8.60;;;8.20;;
4365;SDS011;2196;47.422;9.656;2023-06-10T13:46:08;7.47;;;7.10;;
4365;SDS011;2196;47.422;9.656;2023-06-10T13:48:35;9.02;;;8.38;;
4365;SDS011;2196;47.422;9.656;2023-06-10T13:51:02;8.43;;;7.93;;
4365;SDS011;2196;47.422;9.656;2023-06-10T13:53:29;7.55;;;7.15;;
4365;SDS011;2196;47.422;9.656;2023-06-10T13:55:56;7.97;;;7.38;;
4365;SDS011;2196;47.422;9.656;2023-06-10T13:58:24;7.15;;;6.78;;
4365;SDS011;2196;47.422;9.656;2023-06-10T14:00:51;8.50;;;7.90;;
4365;SDS011;2196;47.422;9.656;2023-06-10T14:03:19;8.02;;;7.53;;
4365;SDS011;2196;47.422;9.656;2023-06-10T14:05:46;7.90;;;7.50;;
4365;SDS011;2196;47.422;9.656;2023-06-10T14:08:13;7.97;;;7.60;;
4365;SDS011;2196;47.422;9.656;2023-06-10T14:10:40;7.28;;;6.88;;
4365;SDS011;2196;47.422;9.656;2023-06-10T14:13:07;7.32;;;6.93;;
4365;SDS011;2196;47.422;9.656;2023-06-10T14:15:35;6.78;;;6.30;;
4365;SDS011;2196;47.422;9.656;2023-06-10T14:18:02;6.88;;;6.57;;
4365;SDS011;2196;47.422;9.656;2023-06-10T14:20:30;8.50;;;7.80;;
4365;SDS011;2196;47.422;9.656;2023-06-10T14:22:57;8.45;;;7.93;;
4365;SDS011;2196;47.422;9.656;2023-06-10T14:25:24;9.73;;;8.93;;
4365;SDS011;2196;47.422;9.656;2023-06-10T14:27:51;7.43;;;7.03;;
4365;SDS011;2196;47.422;9.656;2023-06-10T14:30:18;6.97;;;6.57;;
4365;SDS011;2196;47.422;9.656;2023-06-10T14:32:47;9.13;;;8.43;;
4365;SDS011;2196;47.422;9.656;2023-06-10T14:35:14;7.90;;;7.45;;
4365;SDS011;2196;47.422;9.656;2023-06-10T14:37:41;7.47;;;7.18;;
4365;SDS011;2196;47.422;9.656;2023-06-10T14:40:08;7.95;;;7.55;;
4365;SDS011;2196;47.422;9.656;2023-06-10T14:42:36;8.00;;;7.25;;
4365;SDS011;2196;47.422;9.656;2023-06-10T14:45:03;6.95;;;6.65;;
4365;SDS011;2196;47.422;9.656;2023-06-10T14:47:31;6.75;;;6.45;;
4365;SDS011;2196;47.422;9.656;2023-06-10T14:50:00;7.78;;;7.15;;
4365;SDS011;2196;47.422;9.656;2023-06-10T14:52:27;7.45;;;7.15;;
4365;SDS011;2196;47.422;9.656;2023-06-10T14:54:54;6.53;;;6.22;;
4365;SDS011;2196;47.422;9.656;2023-06-10T14:57:21;6.43;;;6.13;;
4365;SDS011;2196;47.422;9.656;2023-06-10T14:59:48;5.82;;;5.45;;
4365;SDS011;2196;47.422;9.656;2023-06-10T15:02:14;6.07;;;5.82;;
4365;SDS011;2196;47.422;9.656;2023-06-10T15:04:41;6.13;;;5.82;;
4365;SDS011;2196;47.422;9.656;2023-06-10T15:07:10;7.13;;;6.63;;
4365;SDS011;2196;47.422;9.656;2023-06-10T15:09:37;5.95;;;5.55;;
4365;SDS011;2196;47.422;9.656;2023-06-10T15:12:04;6.00;;;5.80;;
4365;SDS011;2196;47.422;9.656;2023-06-10T15:14:31;6.25;;;5.97;;
4365;SDS011;2196;47.422;9.656;2023-06-10T15:16:58;6.40;;;6.20;;
4365;SDS011;2196;47.422;9.656;2023-06-10T15:19:25;6.05;;;5.68;;
4365;SDS011;2196;47.422;9.656;2023-06-10T15:21:53;5.22;;;5.03;;
4365;SDS011;2196;47.422;9.656;2023-06-10T15:24:21;6.25;;;5.95;;
4365;SDS011;2196;47.422;9.656;2023-06-10T15:26:48;5.90;;;5.70;;